Alvorada, Brazil
Current Conditions -  °F | °C
As of 11:00 PM on Monday 20 Oct 2014 (Local Time) from SBPJ Reporting Station
Scattered Clouds Scattered Clouds  
Wind Chill: 82°   Ceiling: Unl
Heat Index: 85°   Visibility: 6mi
Dew Point: 66°   Wind: 2mph
Humidity: 58%   Direction: 140°SE
Pressure: 29.88"   Gusts: NA
Location:  12.48°S, 49.12°W
Report Text: SBPJ 210200Z 14002KT 9999 FEW030 FEW035TCU SCT090 28/19 Q1012
Loading
Personal Weather Stations






























Interactive Weather Map
Tropical Storm Tracking
New forecast layout! Learn more

10-Day Weather Forecast

Advertisements
Track Severe Weather on mobile